createdAt,value
2018-10-07T00:02:29.315Z,94547.33
2018-10-07T00:05:33.697Z,94545.82
2018-10-07T00:08:38.124Z,94543.92
2018-10-07T00:11:43.180Z,94540.23
2018-10-07T00:14:47.506Z,94545.36
2018-10-07T00:17:52.613Z,94543.89
2018-10-07T00:20:56.973Z,94535.92
2018-10-07T00:24:01.382Z,94530.34
2018-10-07T00:27:05.839Z,94529.00
2018-10-07T00:30:10.144Z,94529.92
2018-10-07T00:33:14.575Z,94529.70
2018-10-07T00:36:18.879Z,94518.33
2018-10-07T00:39:23.258Z,94524.75
2018-10-07T00:42:27.545Z,94519.34
2018-10-07T00:45:32.314Z,94517.70
2018-10-07T00:48:36.678Z,94519.45
2018-10-07T00:51:41.003Z,94518.55
2018-10-07T00:54:45.296Z,94522.97
2018-10-07T00:57:49.648Z,94521.42
2018-10-07T01:00:54.097Z,94521.77
2018-10-07T01:03:58.525Z,94518.64
2018-10-07T01:07:02.811Z,94518.89
2018-10-07T01:10:07.195Z,94519.03
2018-10-07T01:13:11.501Z,94518.64
2018-10-07T01:16:15.934Z,94514.86
2018-10-07T01:19:20.304Z,94515.03
2018-10-07T01:22:24.597Z,94518.78
2018-10-07T01:25:36.868Z,94520.47
2018-10-07T01:28:41.216Z,94522.92
2018-10-07T01:31:46.557Z,94530.15
2018-10-07T01:34:51.223Z,94527.58
2018-10-07T01:37:55.492Z,94531.37
2018-10-07T01:41:00.112Z,94537.08
2018-10-07T01:44:04.559Z,94533.44
2018-10-07T01:47:08.986Z,94539.02
2018-10-07T01:50:13.336Z,94532.45
2018-10-07T01:53:17.748Z,94541.88
2018-10-07T01:56:22.073Z,94538.77
2018-10-07T01:59:26.438Z,94534.59
2018-10-07T02:02:30.719Z,94543.33
2018-10-07T02:05:36.584Z,94535.75
2018-10-07T02:08:40.944Z,94531.77
2018-10-07T02:11:46.580Z,94539.69
2018-10-07T02:14:50.964Z,94547.08
2018-10-07T02:17:55.296Z,94539.13
2018-10-07T02:20:59.625Z,94541.31
2018-10-07T02:24:03.990Z,94539.67
2018-10-07T02:27:08.369Z,94543.89
2018-10-07T02:30:12.681Z,94544.00
2018-10-07T02:33:17.013Z,94539.67
2018-10-07T02:36:21.349Z,94538.34
2018-10-07T02:39:25.677Z,94541.78
2018-10-07T02:42:29.997Z,94536.66
2018-10-07T02:45:34.361Z,94536.91
2018-10-07T02:48:38.691Z,94546.67
2018-10-07T02:51:43.397Z,94550.25
2018-10-07T02:54:47.705Z,94554.02
2018-10-07T02:57:53.539Z,94550.32
2018-10-07T03:00:57.832Z,94540.78
2018-10-07T03:04:02.137Z,94543.09
2018-10-07T03:07:06.614Z,94548.08
2018-10-07T03:10:11.105Z,94548.78
2018-10-07T03:13:15.918Z,94552.26
2018-10-07T03:16:20.224Z,94553.20
2018-10-07T03:19:24.804Z,94552.56
2018-10-07T03:22:29.130Z,94552.35
2018-10-07T03:25:33.433Z,94550.25
2018-10-07T03:28:37.756Z,94547.93
2018-10-07T03:31:42.185Z,94553.64
2018-10-07T03:34:46.589Z,94557.43
2018-10-07T03:37:50.931Z,94553.64
2018-10-07T03:40:55.382Z,94549.69
2018-10-07T03:43:59.796Z,94549.34
2018-10-07T03:47:04.129Z,94548.91
2018-10-07T03:50:08.498Z,94554.25
2018-10-07T03:53:12.969Z,94563.23
2018-10-07T03:56:17.316Z,94563.23
2018-10-07T03:59:21.686Z,94563.19
2018-10-07T04:02:26.101Z,94553.08
2018-10-07T04:05:30.417Z,94561.42
2018-10-07T04:08:34.742Z,94566.34
2018-10-07T04:11:39.482Z,94559.67
2018-10-07T04:14:43.828Z,94568.23
2018-10-07T04:17:48.165Z,94566.34
2018-10-07T04:20:52.542Z,94571.53
2018-10-07T04:23:56.853Z,94571.53
2018-10-07T04:27:01.183Z,94569.56
2018-10-07T04:30:05.533Z,94572.80
2018-10-07T04:33:09.853Z,94573.35
2018-10-07T04:36:14.256Z,94576.44
2018-10-07T04:39:18.676Z,94581.22
2018-10-07T04:42:23.432Z,94581.08
2018-10-07T04:45:27.987Z,94584.66
2018-10-07T04:48:32.478Z,94588.09
2018-10-07T04:51:36.969Z,94590.77
2018-10-07T04:54:41.326Z,94589.35
2018-10-07T04:57:45.860Z,94591.03
2018-10-07T05:00:50.173Z,94592.44
2018-10-07T05:03:54.492Z,94599.63
2018-10-07T05:06:59.837Z,94603.11
2018-10-07T05:10:21.024Z,94607.41
2018-10-07T05:13:31.953Z,94612.79
2018-10-07T05:16:46.454Z,94614.89
2018-10-07T05:19:50.978Z,94620.52
2018-10-07T05:22:55.370Z,94625.60
2018-10-07T05:25:59.832Z,94623.53
2018-10-07T05:29:04.125Z,94623.58
2018-10-07T05:32:08.501Z,94627.66
2018-10-07T05:35:12.829Z,94630.14
2018-10-07T05:38:17.152Z,94626.40
2018-10-07T05:41:21.488Z,94636.65
2018-10-07T05:44:25.861Z,94641.00
2018-10-07T05:47:30.813Z,94646.59
2018-10-07T05:50:35.197Z,94656.02
2018-10-07T05:53:39.560Z,94669.22
2018-10-07T05:56:43.876Z,94669.48
2018-10-07T05:59:48.209Z,94672.36
2018-10-07T06:02:54.246Z,94673.34
2018-10-07T06:05:59.453Z,94668.09
2018-10-07T06:09:04.707Z,94671.93
2018-10-07T06:12:09.229Z,94674.34
2018-10-07T06:15:35.724Z,94680.06
2018-10-07T06:18:40.168Z,94679.63
2018-10-07T06:21:45.213Z,94684.75
2018-10-07T06:24:49.667Z,94685.16
2018-10-07T06:27:54.410Z,94684.20
2018-10-07T06:30:58.951Z,94685.09
2018-10-07T06:34:03.313Z,94693.48
2018-10-07T06:37:10.848Z,94694.19
2018-10-07T06:40:15.329Z,94697.15
2018-10-07T06:43:19.815Z,94693.49
2018-10-07T06:46:24.197Z,94698.59
2018-10-07T06:49:28.505Z,94701.48
2018-10-07T06:52:33.053Z,94703.27
2018-10-07T06:55:37.777Z,94713.19
2018-10-07T06:58:42.177Z,94709.00
2018-10-07T07:01:47.076Z,94707.20
2018-10-07T07:04:52.120Z,94712.44
2018-10-07T07:07:56.494Z,94714.59
2018-10-07T07:11:00.874Z,94719.78
2018-10-07T07:14:05.344Z,94724.40
2018-10-07T07:17:09.872Z,94724.82
2018-10-07T07:20:13.986Z,94733.47
2018-10-07T07:23:18.377Z,94732.41
2018-10-07T07:26:23.009Z,94735.05
2018-10-07T07:29:27.335Z,94744.72
2018-10-07T07:32:31.681Z,94756.38
2018-10-07T07:35:36.564Z,94760.94
2018-10-07T07:38:41.049Z,94768.67
2018-10-07T07:41:45.724Z,94764.23
2018-10-07T07:44:50.149Z,94772.05
2018-10-07T07:47:55.704Z,94766.03
2018-10-07T07:51:00.097Z,94775.66
2018-10-07T07:54:04.465Z,94774.95
2018-10-07T07:57:08.870Z,94788.97
2018-10-07T08:00:13.317Z,94792.28
2018-10-07T08:03:17.724Z,94795.05
2018-10-07T08:06:22.203Z,94798.78
2018-10-07T08:09:26.555Z,94802.34
2018-10-07T08:12:31.117Z,94804.09
2018-10-07T08:15:35.584Z,94811.70
2018-10-07T08:18:40.156Z,94807.97
2018-10-07T08:21:44.642Z,94808.50
2018-10-07T08:24:49.004Z,94807.80
2018-10-07T08:27:53.413Z,94813.62
2018-10-07T08:30:57.848Z,94810.83
2018-10-07T08:34:02.327Z,94813.37
2018-10-07T08:37:06.887Z,94816.69
2018-10-07T08:40:11.341Z,94818.61
2018-10-07T08:43:16.073Z,94813.82
2018-10-07T08:46:20.458Z,94813.81
2018-10-07T08:49:25.779Z,94810.56
2018-10-07T08:52:30.174Z,94822.08
2018-10-07T08:55:34.730Z,94815.56
2018-10-07T08:58:39.108Z,94820.53
2018-10-07T09:01:43.965Z,94822.64
2018-10-07T09:04:48.505Z,94824.94
2018-10-07T09:07:52.916Z,94822.42
2018-10-07T09:10:58.020Z,94823.59
2018-10-07T09:14:02.515Z,94820.28
2018-10-07T09:17:06.994Z,94826.45
2018-10-07T09:20:11.472Z,94823.55
2018-10-07T09:23:15.879Z,94826.80
2018-10-07T09:26:20.255Z,94832.80
2018-10-07T09:29:24.635Z,94832.91
2018-10-07T09:32:29.099Z,94833.31
2018-10-07T09:35:33.676Z,94836.61
2018-10-07T09:38:38.121Z,94832.78
2018-10-07T09:41:42.476Z,94833.94
2018-10-07T09:44:46.904Z,94830.71
2018-10-07T09:47:51.433Z,94837.09
2018-10-07T09:50:55.891Z,94837.53
2018-10-07T09:54:00.257Z,94840.80
2018-10-07T09:57:04.638Z,94834.70
2018-10-07T10:00:09.221Z,94831.88
2018-10-07T10:03:13.640Z,94834.30
2018-10-07T10:06:18.387Z,94832.79
2018-10-07T10:09:22.793Z,94828.75
2018-10-07T10:12:27.241Z,94831.75
2018-10-07T10:15:31.617Z,94843.39
2018-10-07T10:18:55.439Z,94847.14
2018-10-07T10:22:17.997Z,94843.25
2018-10-07T10:25:31.026Z,94848.47
2018-10-07T10:29:12.468Z,94846.17
2018-10-07T10:32:29.797Z,94848.73
2018-10-07T10:36:18.834Z,94847.75
2018-10-07T10:40:27.914Z,94854.86
2018-10-07T10:43:43.668Z,94857.13
2018-10-07T10:46:59.606Z,94858.63
2018-10-07T10:50:17.352Z,94860.45
2018-10-07T10:53:35.721Z,94856.07
2018-10-07T10:57:54.983Z,94853.09
2018-10-07T11:01:05.370Z,94860.88
2018-10-07T11:04:22.380Z,94861.33
2018-10-07T11:07:36.541Z,94859.73
2018-10-07T11:10:52.174Z,94861.08
2018-10-07T11:14:06.817Z,94857.13
2018-10-07T11:17:27.362Z,94855.20
2018-10-07T11:21:47.264Z,94860.70
2018-10-07T11:25:04.185Z,94858.52
2018-10-07T11:28:21.136Z,94860.91
2018-10-07T11:31:43.138Z,94865.39
2018-10-07T11:35:26.783Z,94861.38
2018-10-07T11:38:51.285Z,94865.08
2018-10-07T11:42:05.442Z,94872.05
2018-10-07T11:45:17.272Z,94878.05
2018-10-07T11:48:41.978Z,94870.73
2018-10-07T11:52:04.968Z,94871.89
2018-10-07T11:55:08.107Z,94874.58
2018-10-07T11:58:12.483Z,94873.23
2018-10-07T12:01:16.834Z,94872.88
2018-10-07T12:04:21.244Z,94872.08
2018-10-07T12:07:26.755Z,94866.48
2018-10-07T12:10:31.114Z,94868.56
2018-10-07T12:13:35.700Z,94866.81
2018-10-07T12:16:40.169Z,94867.56
2018-10-07T12:19:44.665Z,94865.44
2018-10-07T12:22:48.960Z,94872.97
2018-10-07T12:25:53.324Z,94884.58
2018-10-07T12:28:57.949Z,94880.36
2018-10-07T12:32:02.221Z,94878.82
2018-10-07T12:35:06.636Z,94878.42
2018-10-07T12:38:10.960Z,94882.27
2018-10-07T12:41:15.589Z,94883.03
2018-10-07T12:44:20.041Z,94891.46
2018-10-07T12:47:24.581Z,94897.80
2018-10-07T12:50:28.936Z,94901.08
2018-10-07T12:53:33.402Z,94897.80
2018-10-07T12:56:38.006Z,94905.84
2018-10-07T12:59:42.393Z,94905.45
2018-10-07T13:02:46.764Z,94902.98
2018-10-07T13:05:51.060Z,94902.44
2018-10-07T13:08:55.362Z,94909.93
2018-10-07T13:11:59.897Z,94917.45
2018-10-07T13:15:04.660Z,94915.73
2018-10-07T13:18:09.049Z,94918.80
2018-10-07T13:21:13.445Z,94912.47
2018-10-07T13:24:17.814Z,94914.98
2018-10-07T13:27:22.129Z,94911.87
2018-10-07T13:30:26.628Z,94909.70
2018-10-07T13:33:31.000Z,94916.20
2018-10-07T13:36:35.312Z,94926.03
2018-10-07T13:39:39.630Z,94919.73
2018-10-07T13:42:43.997Z,94930.17
2018-10-07T13:45:48.345Z,94930.38
2018-10-07T13:48:52.635Z,94929.18
2018-10-07T13:51:56.928Z,94926.46
2018-10-07T13:55:01.245Z,94925.45
2018-10-07T13:58:05.751Z,94925.84
2018-10-07T14:01:10.989Z,94926.97
2018-10-07T14:04:15.425Z,94924.63
2018-10-07T14:07:19.904Z,94926.16
2018-10-07T14:10:24.198Z,94924.81
2018-10-07T14:13:28.797Z,94929.79
2018-10-07T14:16:33.093Z,94930.88
2018-10-07T14:19:37.386Z,94930.28
2018-10-07T14:22:42.021Z,94929.88
2018-10-07T14:25:46.513Z,94928.50
2018-10-07T14:28:51.149Z,94932.10
2018-10-07T14:31:55.653Z,94943.22
2018-10-07T14:35:00.136Z,94947.62
2018-10-07T14:38:04.537Z,94949.20
2018-10-07T14:41:09.068Z,94948.52
2018-10-07T14:44:13.403Z,94951.69
2018-10-07T14:47:17.729Z,94951.27
2018-10-07T14:50:28.639Z,94950.83
2018-10-07T14:53:32.941Z,94951.62
2018-10-07T14:56:37.425Z,94958.33
2018-10-07T14:59:41.821Z,94954.39
2018-10-07T15:02:46.280Z,94953.72
2018-10-07T15:05:50.940Z,94952.53
2018-10-07T15:08:55.312Z,94955.30
2018-10-07T15:11:59.896Z,94956.80
2018-10-07T15:15:04.402Z,94953.84
2018-10-07T15:18:08.833Z,94954.81
2018-10-07T15:21:13.217Z,94958.47
2018-10-07T15:24:17.640Z,94950.73
2018-10-07T15:27:22.145Z,94954.03
2018-10-07T15:30:26.600Z,94950.73
2018-10-07T15:33:31.414Z,94954.53
2018-10-07T15:36:35.931Z,94960.26
2018-10-07T15:39:40.498Z,94966.73
2018-10-07T15:42:44.995Z,94965.41
2018-10-07T15:45:49.400Z,94969.21
2018-10-07T15:48:53.837Z,94968.95
2018-10-07T15:51:58.274Z,94971.55
2018-10-07T15:55:02.690Z,94973.44
2018-10-07T15:58:07.118Z,94972.97
2018-10-07T16:01:11.532Z,94975.20
2018-10-07T16:04:16.073Z,94979.03
2018-10-07T16:07:20.460Z,94983.16
2018-10-07T16:10:24.782Z,94989.00
2018-10-07T16:13:29.118Z,94988.27
2018-10-07T16:16:33.530Z,94996.90
2018-10-07T16:19:37.861Z,94996.88
2018-10-07T16:22:42.307Z,95003.59
2018-10-07T16:25:46.771Z,95006.78
2018-10-07T16:28:51.204Z,95013.45
2018-10-07T16:31:55.861Z,95016.64
2018-10-07T16:35:00.429Z,95018.76
2018-10-07T16:38:04.843Z,95024.72
2018-10-07T16:41:12.196Z,95027.30
2018-10-07T16:44:17.611Z,95030.53
2018-10-07T16:47:22.256Z,95032.39
2018-10-07T16:50:26.689Z,95041.59
2018-10-07T16:53:31.255Z,95040.00
2018-10-07T16:56:36.773Z,95045.02
2018-10-07T16:59:41.359Z,95049.84
2018-10-07T17:02:45.789Z,95046.96
2018-10-07T17:05:51.061Z,95043.53
2018-10-07T17:08:55.582Z,95053.11
2018-10-07T17:12:00.136Z,95056.78
2018-10-07T17:15:04.589Z,95057.56
2018-10-07T17:18:09.327Z,95063.20
2018-10-07T17:21:13.657Z,95064.97
2018-10-07T17:24:18.062Z,95071.23
2018-10-07T17:27:22.524Z,95068.18
2018-10-07T17:30:26.884Z,95069.06
2018-10-07T17:33:31.317Z,95068.88
2018-10-07T17:36:35.761Z,95087.72
2018-10-07T17:39:40.144Z,95084.83
2018-10-07T17:42:44.885Z,95085.67
2018-10-07T17:45:49.452Z,95081.48
2018-10-07T17:48:54.582Z,95083.93
2018-10-07T17:51:59.912Z,95083.05
2018-10-07T17:55:04.853Z,95091.70
2018-10-07T17:58:09.388Z,95095.52
2018-10-07T18:01:14.140Z,95102.67
2018-10-07T18:04:18.542Z,95106.72
2018-10-07T18:07:23.178Z,95109.41
2018-10-07T18:10:27.698Z,95115.78
2018-10-07T18:13:32.117Z,95121.66
2018-10-07T18:16:36.583Z,95123.58
2018-10-07T18:19:40.996Z,95124.16
2018-10-07T18:22:45.414Z,95120.19
2018-10-07T18:25:49.902Z,95122.08
2018-10-07T18:28:54.455Z,95130.09
2018-10-07T18:31:58.949Z,95123.43
2018-10-07T18:35:03.565Z,95130.53
2018-10-07T18:38:07.964Z,95133.11
2018-10-07T18:41:12.654Z,95131.42
2018-10-07T18:44:17.083Z,95135.53
2018-10-07T18:47:21.517Z,95132.53
2018-10-07T18:50:26.737Z,95135.20
2018-10-07T18:53:31.263Z,95136.20
2018-10-07T18:56:35.885Z,95140.41
2018-10-07T18:59:40.321Z,95141.39
2018-10-07T19:02:44.886Z,95142.95
2018-10-07T19:05:49.159Z,95153.07
2018-10-07T19:08:53.614Z,95157.14
2018-10-07T19:11:58.040Z,95160.80
2018-10-07T19:15:02.699Z,95162.95
2018-10-07T19:18:07.654Z,95162.84
2018-10-07T19:21:12.244Z,95165.65
2018-10-07T19:24:16.687Z,95168.66
2018-10-07T19:27:21.278Z,95161.55
2018-10-07T19:30:25.941Z,95166.30
2018-10-07T19:33:30.326Z,95167.83
2018-10-07T19:36:34.878Z,95172.74
2018-10-07T19:39:40.796Z,95171.86
2018-10-07T19:42:46.475Z,95173.66
2018-10-07T19:45:51.378Z,95175.30
2018-10-07T19:48:57.003Z,95177.41
2018-10-07T19:52:03.513Z,95182.41
2018-10-07T19:55:09.904Z,95188.61
2018-10-07T19:58:15.278Z,95186.05
2018-10-07T20:01:22.114Z,95178.84
2018-10-07T20:04:26.436Z,95184.13
2018-10-07T20:07:31.079Z,95189.44
2018-10-07T20:10:40.266Z,95189.20
2018-10-07T20:13:44.958Z,95186.27
2018-10-07T20:16:49.512Z,95186.91
2018-10-07T20:19:53.930Z,95183.45
2018-10-07T20:22:58.419Z,95181.69
2018-10-07T20:26:03.725Z,95184.34
2018-10-07T20:29:09.006Z,95187.56
2018-10-07T20:32:13.534Z,95197.13
2018-10-07T20:35:18.351Z,95199.52
2018-10-07T20:38:22.897Z,95207.04
2018-10-07T20:41:28.109Z,95213.38
2018-10-07T20:44:33.299Z,95214.00
2018-10-07T20:47:38.765Z,95209.91
2018-10-07T20:50:43.229Z,95214.20
2018-10-07T20:53:50.535Z,95215.59
2018-10-07T20:56:55.143Z,95223.02
2018-10-07T20:59:59.825Z,95223.36
2018-10-07T21:03:08.265Z,95220.88
2018-10-07T21:06:13.756Z,95220.16
2018-10-07T21:09:18.228Z,95223.22
2018-10-07T21:12:23.077Z,95224.55
2018-10-07T21:15:27.475Z,95226.66
2018-10-07T21:18:32.044Z,95227.91
2018-10-07T21:21:36.997Z,95231.02
2018-10-07T21:24:41.534Z,95236.22
2018-10-07T21:27:45.937Z,95235.20
2018-10-07T21:30:52.828Z,95235.53
2018-10-07T21:33:57.358Z,95240.81
2018-10-07T21:37:02.418Z,95243.01
2018-10-07T21:40:09.368Z,95243.88
2018-10-07T21:43:14.617Z,95242.55
2018-10-07T21:46:18.800Z,95241.85
2018-10-07T21:49:24.259Z,95245.09
2018-10-07T21:52:28.737Z,95245.37
2018-10-07T21:55:33.566Z,95249.64
2018-10-07T21:58:38.124Z,95248.87
2018-10-07T22:01:43.124Z,95251.73
2018-10-07T22:04:47.698Z,95249.83
2018-10-07T22:07:52.145Z,95248.33
2018-10-07T22:10:57.433Z,95243.84
2018-10-07T22:14:01.833Z,95248.66
2018-10-07T22:17:06.308Z,95254.53
2018-10-07T22:20:11.041Z,95251.78
2018-10-07T22:23:15.415Z,95251.64
2018-10-07T22:26:19.837Z,95254.38
2018-10-07T22:29:24.285Z,95246.47
2018-10-07T22:32:28.665Z,95247.14
2018-10-07T22:35:33.426Z,95249.83
2018-10-07T22:38:39.010Z,95251.30
2018-10-07T22:41:43.429Z,95247.45
2018-10-07T22:44:47.812Z,95247.34
2018-10-07T22:47:52.968Z,95252.28
2018-10-07T22:50:57.414Z,95251.84
2018-10-07T22:54:01.813Z,95249.44
2018-10-07T22:57:07.889Z,95253.37
2018-10-07T23:00:13.333Z,95253.86
2018-10-07T23:03:20.933Z,95249.78
2018-10-07T23:06:25.325Z,95254.66
2018-10-07T23:09:30.241Z,95254.73
2018-10-07T23:12:34.619Z,95251.40
2018-10-07T23:19:15.205Z,95245.77
2018-10-07T23:22:19.699Z,95241.55
2018-10-07T23:25:25.364Z,95242.45
2018-10-07T23:28:29.512Z,95247.64
2018-10-07T23:31:33.904Z,95254.91
2018-10-07T23:34:38.342Z,95254.53
2018-10-07T23:37:44.925Z,95255.49
2018-10-07T23:40:52.973Z,95250.17
2018-10-07T23:43:57.102Z,95248.71
2018-10-07T23:47:01.510Z,95257.51
2018-10-07T23:50:05.975Z,95250.84
2018-10-07T23:53:10.945Z,95249.60
2018-10-07T23:56:16.133Z,95256.88
2018-10-07T23:59:21.024Z,95262.68
